Time;durP1;ratioP1;P1;durP2;ratioP2;P2;SDS_P1;SDS_P2;PMS_P1;PMS_P2;Temp;Humidity;BMP_temperature;BMP_pressure;BME280_temperature;BME280_humidity;BME280_pressure;Samples;Min_cycle;Max_cycle;Signal;HPM_P1;HPM_P2
2023/06/21 00:01:35;;;;;;;0.8;0.4;;;;;;;;;;;;;-70
2023/06/21 00:03:10;;;;;;;;;;;;;;;20.48;76.91992;101217.9;;;;-68
2023/06/21 00:08:11;;;;;;;;;;;;;;;20.45;77.13086;101206.9;;;;-69
2023/06/21 00:13:10;;;;;;;;;;;;;;;20.4;77.51953;101213.5;;;;-69
2023/06/21 00:18:10;;;;;;;;;;;;;;;20.47;76.48926;101205.5;;;;-68
2023/06/21 00:23:11;;;;;;;;;;;;;;;20.37;75.79297;101209.5;;;;-69
2023/06/21 00:28:10;;;;;;;;;;;;;;;20.35;75.98047;101216.9;;;;-70
2023/06/21 00:31:36;;;;;;;0.4;0.1;;;;;;;;;;;;;-68
2023/06/21 00:33:10;;;;;;;;;;;;;;;20.33;75.01465;101213.9;;;;-69
2023/06/21 00:38:12;;;;;;;;;;;;;;;20.27;75.82129;101229.7;;;;-68
2023/06/21 00:43:10;;;;;;;;;;;;;;;20.26;76.88379;101228;;;;-68
2023/06/21 00:48:10;;;;;;;;;;;;;;;20.25;76.91504;101237.5;;;;-68
2023/06/21 00:53:10;;;;;;;;;;;;;;;20.23;76.5498;101236.7;;;;-68
2023/06/21 00:58:12;;;;;;;;;;;;;;;20.2;76.375;101257.1;;;;-68
2023/06/21 01:01:40;;;;;;;0.2;0;;;;;;;;;;;;;-68
2023/06/21 01:03:10;;;;;;;;;;;;;;;20.13;76.35156;101259.4;;;;-68
2023/06/21 01:08:15;;;;;;;;;;;;;;;20.05;75.58984;101254.8;;;;-67
2023/06/21 01:13:18;;;;;;;;;;;;;;;20;76.96289;101265.2;;;;-69
2023/06/21 01:18:10;;;;;;;;;;;;;;;19.92;76.28125;101267.6;;;;-68
2023/06/21 01:23:26;;;;;;;;;;;;;;;19.89;76.60449;101273.7;;;;-69
2023/06/21 01:28:26;;;;;;;;;;;;;;;19.83;75.54297;101287.9;;;;-69
2023/06/21 01:31:42;;;;;;;14.8;1.4;;;;;;;;;;;;;-69
2023/06/21 01:33:12;;;;;;;;;;;;;;;19.72;76.18066;101288;;;;-69
2023/06/21 01:38:10;;;;;;;;;;;;;;;19.7;75.89355;101296.2;;;;-69
2023/06/21 01:43:10;;;;;;;;;;;;;;;19.63;76.38086;101295.3;;;;-68
2023/06/21 01:48:11;;;;;;;;;;;;;;;19.58;76.3916;101297.4;;;;-69
2023/06/21 01:53:13;;;;;;;;;;;;;;;19.5;76.16504;101305.6;;;;-69
2023/06/21 01:58:11;;;;;;;;;;;;;;;19.48;75.91113;101284.9;;;;-68
2023/06/21 02:01:50;;;;;;;0.5;0.2;;;;;;;;;;;;;-68
2023/06/21 02:03:13;;;;;;;;;;;;;;;19.38;76.77734;101285.2;;;;-69
2023/06/21 02:08:15;;;;;;;;;;;;;;;19.35;75.59766;101297.1;;;;-68
2023/06/21 02:13:10;;;;;;;;;;;;;;;19.27;74.99609;101299.1;;;;-68
2023/06/21 02:18:10;;;;;;;;;;;;;;;19.18;75.29492;101302.9;;;;-68
2023/06/21 02:23:10;;;;;;;;;;;;;;;19.05;75.71582;101299.8;;;;-68
2023/06/21 02:28:10;;;;;;;;;;;;;;;19.06;74.98145;101308.2;;;;-68
2023/06/21 02:31:47;;;;;;;0.2;0.1;;;;;;;;;;;;;-68
2023/06/21 02:33:10;;;;;;;;;;;;;;;19;74.37305;101318.9;;;;-67
2023/06/21 02:38:10;;;;;;;;;;;;;;;18.94;74.53418;101322;;;;-69
2023/06/21 02:43:10;;;;;;;;;;;;;;;18.88;74.12793;101323.6;;;;-69
2023/06/21 02:48:10;;;;;;;;;;;;;;;18.8;74.83691;101336.4;;;;-70
2023/06/21 02:53:10;;;;;;;;;;;;;;;18.77;74.4375;101338.2;;;;-69
2023/06/21 02:58:10;;;;;;;;;;;;;;;18.7;74.2666;101343.6;;;;-69
2023/06/21 03:01:50;;;;;;;0.2;0.1;;;;;;;;;;;;;-68
2023/06/21 03:03:10;;;;;;;;;;;;;;;18.63;74.1084;101353.4;;;;-68
2023/06/21 03:08:11;;;;;;;;;;;;;;;18.58;73.8291;101355.8;;;;-68
2023/06/21 03:13:10;;;;;;;;;;;;;;;18.49;74.32227;101362.3;;;;-67
2023/06/21 03:18:10;;;;;;;;;;;;;;;18.43;73.62305;101376.6;;;;-69
2023/06/21 03:23:10;;;;;;;;;;;;;;;18.4;73.90234;101385.5;;;;-67
2023/06/21 03:28:10;;;;;;;;;;;;;;;18.37;73.05957;101386.1;;;;-67
2023/06/21 03:31:53;;;;;;;0.2;0.1;;;;;;;;;;;;;-69
2023/06/21 03:33:10;;;;;;;;;;;;;;;18.33;73.35938;101390.2;;;;-68
2023/06/21 03:38:10;;;;;;;;;;;;;;;18.33;73.2002;101396.7;;;;-68
2023/06/21 03:43:10;;;;;;;;;;;;;;;18.33;73.17773;101407.7;;;;-69
2023/06/21 03:48:10;;;;;;;;;;;;;;;18.35;73.20508;101418;;;;-69
2023/06/21 03:53:10;;;;;;;;;;;;;;;18.35;73.18262;101427.3;;;;-69
2023/06/21 03:58:10;;;;;;;;;;;;;;;18.41;73.14746;101432.7;;;;-68
2023/06/21 04:01:55;;;;;;;0.2;0.1;;;;;;;;;;;;;-68
2023/06/21 04:03:10;;;;;;;;;;;;;;;18.43;73.16016;101435;;;;-68
2023/06/21 04:08:10;;;;;;;;;;;;;;;18.44;72.73242;101435;;;;-68
2023/06/21 04:13:10;;;;;;;;;;;;;;;18.47;72.98535;101435;;;;-68
2023/06/21 04:18:10;;;;;;;;;;;;;;;18.51;73.03809;101438.9;;;;-69
2023/06/21 04:23:10;;;;;;;;;;;;;;;18.51;73.18555;101436.6;;;;-69
2023/06/21 04:28:10;;;;;;;;;;;;;;;18.55;73.13574;101443.6;;;;-66
2023/06/21 04:31:57;;;;;;;0.3;0.1;;;;;;;;;;;;;-68
2023/06/21 04:33:10;;;;;;;;;;;;;;;18.55;72.68262;101453.3;;;;-68
2023/06/21 04:38:12;;;;;;;;;;;;;;;18.53;72.6123;101452.8;;;;-68
2023/06/21 04:43:10;;;;;;;;;;;;;;;18.55;73.00977;101460.3;;;;-68
2023/06/21 04:48:10;;;;;;;;;;;;;;;18.6;72.40918;101460.3;;;;-68
2023/06/21 04:53:10;;;;;;;;;;;;;;;18.7;72.70801;101462.1;;;;-68
2023/06/21 04:58:10;;;;;;;;;;;;;;;18.8;72.44238;101459.6;;;;-68
2023/06/21 05:02:00;;;;;;;0.3;0.1;;;;;;;;;;;;;-68
2023/06/21 05:03:10;;;;;;;;;;;;;;;18.88;72.45508;101466.8;;;;-69
2023/06/21 05:08:10;;;;;;;;;;;;;;;18.96;72.58105;101472.5;;;;-68
2023/06/21 05:13:10;;;;;;;;;;;;;;;19.1;73.0332;101474.6;;;;-68
2023/06/21 05:18:10;;;;;;;;;;;;;;;19.21;73.78613;101481.7;;;;-69
2023/06/21 05:23:10;;;;;;;;;;;;;;;19.38;74.22266;101483.3;;;;-68
2023/06/21 05:28:10;;;;;;;;;;;;;;;19.52;73.43164;101490.2;;;;-68
2023/06/21 05:32:03;;;;;;;0.2;0;;;;;;;;;;;;;-68
2023/06/21 05:33:10;;;;;;;;;;;;;;;19.64;73.62109;101490.7;;;;-69
2023/06/21 05:38:10;;;;;;;;;;;;;;;19.83;73.43555;101496.1;;;;-69
2023/06/21 05:43:10;;;;;;;;;;;;;;;20.31;73.40234;101498;;;;-68
2023/06/21 05:48:10;;;;;;;;;;;;;;;20.95;72.42773;101500;;;;-68
2023/06/21 05:53:10;;;;;;;;;;;;;;;21.47;71.25;101504.4;;;;-68
2023/06/21 05:58:10;;;;;;;;;;;;;;;21.8;70.8916;101502.9;;;;-68
2023/06/21 06:02:05;;;;;;;0.3;0.1;;;;;;;;;;;;;-69
2023/06/21 06:03:10;;;;;;;;;;;;;;;21.81;70.38086;101509.7;;;;-68
2023/06/21 06:08:10;;;;;;;;;;;;;;;21.62;71.18262;101521.6;;;;-69
2023/06/21 06:13:10;;;;;;;;;;;;;;;21.74;71.70215;101527;;;;-68
2023/06/21 06:18:10;;;;;;;;;;;;;;;22.13;70.55762;101522.6;;;;-68
2023/06/21 06:23:12;;;;;;;;;;;;;;;22.18;69.6543;101530.5;;;;-67
2023/06/21 06:28:10;;;;;;;;;;;;;;;22.3;69.58203;101542;;;;-69
2023/06/21 06:32:09;;;;;;;0.2;0.1;;;;;;;;;;;;;-68
2023/06/21 06:33:10;;;;;;;;;;;;;;;22.59;69.15918;101553.8;;;;-68
2023/06/21 06:38:11;;;;;;;;;;;;;;;23;67.59863;101559.6;;;;-68
2023/06/21 06:43:10;;;;;;;;;;;;;;;23.34;66.55273;101571.1;;;;-68
2023/06/21 06:48:10;;;;;;;;;;;;;;;23.39;66.49121;101575.7;;;;-68
2023/06/21 06:53:10;;;;;;;;;;;;;;;23.47;66.03418;101582.6;;;;-68
2023/06/21 06:58:12;;;;;;;;;;;;;;;23.67;65.66211;101589.9;;;;-68
2023/06/21 07:02:12;;;;;;;0.5;0.3;;;;;;;;;;;;;-69
2023/06/21 07:03:10;;;;;;;;;;;;;;;24.12;64.63867;101583.3;;;;-68
2023/06/21 07:08:10;;;;;;;;;;;;;;;24.35;63.10254;101593.9;;;;-68
2023/06/21 07:13:10;;;;;;;;;;;;;;;24.61;62.53906;101596;;;;-67
2023/06/21 07:18:10;;;;;;;;;;;;;;;24.84;61.91602;101604.4;;;;-68
2023/06/21 07:23:10;;;;;;;;;;;;;;;25.16;61.4668;101616.5;;;;-68
2023/06/21 07:28:10;;;;;;;;;;;;;;;25.24;61.09766;101618;;;;-68
2023/06/21 07:32:15;;;;;;;0.2;0.1;;;;;;;;;;;;;-68
2023/06/21 07:33:10;;;;;;;;;;;;;;;25.7;60.02051;101616.5;;;;-68
2023/06/21 07:38:10;;;;;;;;;;;;;;;25.94;59.11719;101627.5;;;;-69
2023/06/21 07:43:10;;;;;;;;;;;;;;;26.1;58.37695;101635.1;;;;-67
2023/06/21 07:48:10;;;;;;;;;;;;;;;26.2;57.91699;101626.9;;;;-68
2023/06/21 07:53:10;;;;;;;;;;;;;;;26.38;57.7207;101625.9;;;;-70
2023/06/21 07:58:10;;;;;;;;;;;;;;;26.43;56.59473;101635.2;;;;-68
2023/06/21 08:02:23;;;;;;;0.4;0.1;;;;;;;;;;;;;-70
2023/06/21 08:03:10;;;;;;;;;;;;;;;26.59;56.33789;101637.9;;;;-70
2023/06/21 08:08:10;;;;;;;;;;;;;;;26.5;56.1416;101639.6;;;;-70
2023/06/21 08:13:10;;;;;;;;;;;;;;;26.28;55.99902;101634.3;;;;-71
2023/06/21 08:18:10;;;;;;;;;;;;;;;26.59;55.7832;101637.2;;;;-70
2023/06/21 08:23:10;;;;;;;;;;;;;;;26.75;55.61719;101648.3;;;;-70
2023/06/21 08:28:10;;;;;;;;;;;;;;;26.86;54.88965;101651.8;;;;-70
2023/06/21 08:32:24;;;;;;;0.2;0;;;;;;;;;;;;;-69
2023/06/21 08:33:10;;;;;;;;;;;;;;;26.91;54.83984;101655;;;;-70
2023/06/21 08:38:10;;;;;;;;;;;;;;;27.13;53.78906;101656.5;;;;-70
2023/06/21 08:43:13;;;;;;;;;;;;;;;26.99;54.22266;101660.8;;;;-69
2023/06/21 08:48:10;;;;;;;;;;;;;;;26.73;54.66699;101665;;;;-70
2023/06/21 08:53:10;;;;;;;;;;;;;;;26.72;54.53906;101671.5;;;;-70
2023/06/21 08:58:14;;;;;;;;;;;;;;;26.95;53.81445;101674.2;;;;-70
2023/06/21 09:02:33;;;;;;;0.2;0;;;;;;;;;;;;;-70
2023/06/21 09:03:13;;;;;;;;;;;;;;;26.7;54.29297;101675.9;;;;-69
2023/06/21 09:08:13;;;;;;;;;;;;;;;27;53.21777;101682;;;;-70
2023/06/21 09:13:10;;;;;;;;;;;;;;;27.05;52.41406;101680.4;;;;-71
2023/06/21 09:18:10;;;;;;;;;;;;;;;27.55;50.91797;101681.8;;;;-70
2023/06/21 09:23:10;;;;;;;;;;;;;;;27.97;49.46582;101676.8;;;;-70
2023/06/21 09:28:10;;;;;;;;;;;;;;;27.44;48.1084;101681.7;;;;-69
2023/06/21 09:32:33;;;;;;;0.1;0;;;;;;;;;;;;;-69
2023/06/21 09:33:10;;;;;;;;;;;;;;;27.89;47.66895;101687.4;;;;-71
2023/06/21 09:38:20;;;;;;;;;;;;;;;27.83;47.44043;101692.9;;;;-70
2023/06/21 09:43:10;;;;;;;;;;;;;;;27.7;47.77637;101690.1;;;;-70
2023/06/21 09:48:17;;;;;;;;;;;;;;;27.75;47.52539;101692.9;;;;-70
2023/06/21 09:53:13;;;;;;;;;;;;;;;28.53;46.53613;101691.8;;;;-70
2023/06/21 09:58:10;;;;;;;;;;;;;;;28.59;47.2998;101699.6;;;;-70
2023/06/21 10:02:40;;;;;;;0.2;0;;;;;;;;;;;;;-73
2023/06/21 10:03:10;;;;;;;;;;;;;;;28.85;46.6748;101699.4;;;;-70
2023/06/21 10:08:13;;;;;;;;;;;;;;;29.13;46.12012;101705.5;;;;-69
2023/06/21 10:13:10;;;;;;;;;;;;;;;29.15;46.40332;101712.5;;;;-72
2023/06/21 10:18:12;;;;;;;;;;;;;;;29.11;46.42188;101722.4;;;;-69
2023/06/21 10:23:11;;;;;;;;;;;;;;;29.07;47;101724.8;;;;-70
2023/06/21 10:28:12;;;;;;;;;;;;;;;29.57;45.89648;101732.3;;;;-70
2023/06/21 10:32:42;;;;;;;0.8;0.2;;;;;;;;;;;;;-69
2023/06/21 10:33:10;;;;;;;;;;;;;;;29.9;45.42871;101742;;;;-70
2023/06/21 10:38:12;;;;;;;;;;;;;;;30.2;45.41113;101748.2;;;;-71
2023/06/21 10:43:10;;;;;;;;;;;;;;;30.34;45.34375;101757.9;;;;-69
2023/06/21 10:48:13;;;;;;;;;;;;;;;30.41;45.16406;101759.3;;;;-70
2023/06/21 10:53:13;;;;;;;;;;;;;;;30.53;44.81348;101769.9;;;;-70
2023/06/21 10:58:10;;;;;;;;;;;;;;;30.63;45.11523;101776.5;;;;-70
2023/06/21 11:02:48;;;;;;;0.1;0;;;;;;;;;;;;;-70
2023/06/21 11:03:12;;;;;;;;;;;;;;;30.64;44.87012;101780.6;;;;-70
2023/06/21 11:08:10;;;;;;;;;;;;;;;30.72;44.65527;101782.6;;;;-71
2023/06/21 11:13:10;;;;;;;;;;;;;;;30.81;44.46582;101786.5;;;;-67
2023/06/21 11:18:10;;;;;;;;;;;;;;;30.91;45.22461;101784.3;;;;-69
2023/06/21 11:23:14;;;;;;;;;;;;;;;30.89;45.23438;101801.3;;;;-68
2023/06/21 11:28:29;;;;;;;;;;;;;;;30.96;44.85449;101802.5;;;;-69
2023/06/21 11:33:00;;;;;;;0.5;0.1;;;;;;;;;;;;;-68
2023/06/21 11:33:22;;;;;;;;;;;;;;;31.11;46.70898;101808.8;;;;-67
2023/06/21 11:38:10;;;;;;;;;;;;;;;31.28;46.65625;101813.2;;;;-68
2023/06/21 11:43:19;;;;;;;;;;;;;;;31.41;46.44531;101814.2;;;;-68
2023/06/21 11:48:13;;;;;;;;;;;;;;;31.4;46.78516;101825.5;;;;-67
2023/06/21 11:53:26;;;;;;;;;;;;;;;31.6;47.13281;101834.5;;;;-68
2023/06/21 11:58:10;;;;;;;;;;;;;;;31.37;45.86816;101839;;;;-68
2023/06/21 12:02:59;;;;;;;0.2;0;;;;;;;;;;;;;-67
2023/06/21 12:03:10;;;;;;;;;;;;;;;31.48;45.93848;101835.6;;;;-67
2023/06/21 12:08:10;;;;;;;;;;;;;;;31.53;45.81348;101835.1;;;;-69
2023/06/21 12:13:11;;;;;;;;;;;;;;;31.55;45.90918;101845.3;;;;-68
2023/06/21 12:18:12;;;;;;;;;;;;;;;31.5;45.85742;101847.4;;;;-67
2023/06/21 12:23:11;;;;;;;;;;;;;;;31.54;46.02441;101851.4;;;;-68
2023/06/21 12:28:11;;;;;;;;;;;;;;;31.75;45.69531;101864;;;;-70
2023/06/21 12:33:04;;;;;;;0.1;0;;;;;;;;;;;;;-69
2023/06/21 12:33:15;;;;;;;;;;;;;;;31.77;45.82617;101873.2;;;;-68
2023/06/21 12:38:17;;;;;;;;;;;;;;;31.99;45.17871;101874.4;;;;-71
2023/06/21 12:43:10;;;;;;;;;;;;;;;32;45.54492;101884.3;;;;-71
2023/06/21 12:48:10;;;;;;;;;;;;;;;31.88;46.03613;101883.1;;;;-70
2023/06/21 12:53:11;;;;;;;;;;;;;;;31.99;45.54297;101887.4;;;;-70
2023/06/21 12:58:10;;;;;;;;;;;;;;;32;45.48535;101892.6;;;;-71
2023/06/21 13:03:10;;;;;;;;;;;;;;;32.11;44.97949;101896.8;;;;-69
2023/06/21 13:03:21;;;;;;;0.3;0.1;;;;;;;;;;;;;-69
2023/06/21 13:08:10;;;;;;;;;;;;;;;32.07;44.63574;101897;;;;-68
2023/06/21 13:13:10;;;;;;;;;;;;;;;32.1;44.49707;101895.4;;;;-68
2023/06/21 13:18:10;;;;;;;;;;;;;;;32.3;44.04785;101893.9;;;;-68
2023/06/21 13:23:10;;;;;;;;;;;;;;;32.32;44.2959;101897.1;;;;-68
2023/06/21 13:28:10;;;;;;;;;;;;;;;32.47;44.35645;101909.2;;;;-67
2023/06/21 13:33:10;;;;;;;;;;;;;;;32.57;42.96777;101909.5;;;;-68
2023/06/21 13:33:19;;;;;;;0.1;0;;;;;;;;;;;;;-68
2023/06/21 13:38:10;;;;;;;;;;;;;;;32.71;43.16895;101911.2;;;;-68
2023/06/21 13:43:10;;;;;;;;;;;;;;;32.91;43.49512;101911.8;;;;-69
2023/06/21 13:48:10;;;;;;;;;;;;;;;32.88;43.45605;101915.8;;;;-68
2023/06/21 13:53:10;;;;;;;;;;;;;;;32.92;43.03613;101914;;;;-68
2023/06/21 13:58:10;;;;;;;;;;;;;;;32.89;42.50391;101909;;;;-68
2023/06/21 14:03:10;;;;;;;;;;;;;;;32.82;42.60449;101911.9;;;;-68
2023/06/21 14:03:22;;;;;;;0.2;0.1;;;;;;;;;;;;;-68
2023/06/21 14:08:10;;;;;;;;;;;;;;;32.92;42.67188;101914.9;;;;-66
2023/06/21 14:13:12;;;;;;;;;;;;;;;32.86;42.17188;101920.9;;;;-68
2023/06/21 14:18:10;;;;;;;;;;;;;;;32.76;42.16211;101920.5;;;;-68
2023/06/21 14:23:10;;;;;;;;;;;;;;;32.8;42.30762;101928;;;;-68
2023/06/21 14:28:11;;;;;;;;;;;;;;;32.77;41.52832;101924;;;;-68
2023/06/21 14:33:10;;;;;;;;;;;;;;;32.81;42.06152;101921.8;;;;-68
2023/06/21 14:33:28;;;;;;;0.1;0;;;;;;;;;;;;;-66
2023/06/21 14:38:10;;;;;;;;;;;;;;;32.88;41.47949;101913.5;;;;-67
2023/06/21 14:43:10;;;;;;;;;;;;;;;32.83;41.60352;101914.5;;;;-68
2023/06/21 14:48:10;;;;;;;;;;;;;;;32.78;41.09375;101914.7;;;;-68
2023/06/21 14:53:10;;;;;;;;;;;;;;;32.84;40.94629;101913.6;;;;-68
2023/06/21 14:58:10;;;;;;;;;;;;;;;32.85;40.52344;101919.2;;;;-68
2023/06/21 15:03:10;;;;;;;;;;;;;;;32.84;39.6748;101923.8;;;;-68
2023/06/21 15:03:34;;;;;;;0.1;0;;;;;;;;;;;;;-67
2023/06/21 15:08:10;;;;;;;;;;;;;;;32.72;40.80566;101933.1;;;;-66
2023/06/21 15:13:10;;;;;;;;;;;;;;;32.66;41.10645;101935.3;;;;-67
2023/06/21 15:18:10;;;;;;;;;;;;;;;32.77;40.1748;101936.6;;;;-68
2023/06/21 15:23:10;;;;;;;;;;;;;;;32.75;39.9375;101943.5;;;;-68
2023/06/21 15:28:10;;;;;;;;;;;;;;;32.7;40.25195;101945.8;;;;-68
2023/06/21 15:33:10;;;;;;;;;;;;;;;32.64;39.9043;101948.2;;;;-68
2023/06/21 15:33:40;;;;;;;0.2;0;;;;;;;;;;;;;-69
2023/06/21 15:38:10;;;;;;;;;;;;;;;32.42;41.12012;101941.9;;;;-67
2023/06/21 15:43:10;;;;;;;;;;;;;;;32.36;40.6084;101934.6;;;;-68
2023/06/21 15:48:10;;;;;;;;;;;;;;;32.36;40.80957;101937.1;;;;-68
2023/06/21 15:53:11;;;;;;;;;;;;;;;32.3;40.46289;101926;;;;-67
2023/06/21 15:58:10;;;;;;;;;;;;;;;32.27;40.41309;101930.5;;;;-67
2023/06/21 16:03:10;;;;;;;;;;;;;;;32.17;40.89844;101934.2;;;;-66
2023/06/21 16:03:46;;;;;;;0.1;0;;;;;;;;;;;;;-68
2023/06/21 16:08:10;;;;;;;;;;;;;;;32.09;40.90234;101934.3;;;;-68
2023/06/21 16:13:10;;;;;;;;;;;;;;;31.97;40.66895;101938.5;;;;-67
2023/06/21 16:18:12;;;;;;;;;;;;;;;31.85;40.89258;101938.9;;;;-67
2023/06/21 16:23:10;;;;;;;;;;;;;;;31.73;41.30469;101939.6;;;;-67
2023/06/21 16:28:10;;;;;;;;;;;;;;;31.65;40.4873;101939.5;;;;-68
2023/06/21 16:33:10;;;;;;;;;;;;;;;31.47;40.68262;101945.6;;;;-67
2023/06/21 16:33:52;;;;;;;0.3;0.1;;;;;;;;;;;;;-67
2023/06/21 16:38:10;;;;;;;;;;;;;;;31.29;41.38184;101948.9;;;;-68
2023/06/21 16:43:10;;;;;;;;;;;;;;;31.13;41.60254;101949.6;;;;-66
2023/06/21 16:48:10;;;;;;;;;;;;;;;31.03;41.5459;101949.5;;;;-68
2023/06/21 16:53:10;;;;;;;;;;;;;;;30.83;42.125;101955.3;;;;-67
2023/06/21 16:58:12;;;;;;;;;;;;;;;30.71;42.05566;101960.4;;;;-67
2023/06/21 17:03:10;;;;;;;;;;;;;;;30.5;42.27051;101963;;;;-67
2023/06/21 17:03:58;;;;;;;0.2;0;;;;;;;;;;;;;-68
2023/06/21 17:08:10;;;;;;;;;;;;;;;30.28;42.36719;101962.9;;;;-67
2023/06/21 17:13:11;;;;;;;;;;;;;;;30.1;42.63086;101965.3;;;;-66
2023/06/21 17:18:10;;;;;;;;;;;;;;;29.91;42.57813;101964.4;;;;-67
2023/06/21 17:23:10;;;;;;;;;;;;;;;29.73;43.0166;101965.9;;;;-67
2023/06/21 17:28:10;;;;;;;;;;;;;;;29.57;43.32813;101964.6;;;;-69
2023/06/21 17:33:10;;;;;;;;;;;;;;;29.43;43.17578;101975.9;;;;-66
2023/06/21 17:34:03;;;;;;;0.2;0;;;;;;;;;;;;;-65
2023/06/21 17:38:10;;;;;;;;;;;;;;;29.23;43.56445;101981.3;;;;-65
2023/06/21 17:43:10;;;;;;;;;;;;;;;29.1;43.61035;101983.5;;;;-69
2023/06/21 17:48:10;;;;;;;;;;;;;;;28.96;43.77148;101981.5;;;;-69
2023/06/21 17:53:14;;;;;;;;;;;;;;;28.8;43.86133;101988.3;;;;-68
2023/06/21 17:58:10;;;;;;;;;;;;;;;28.65;43.92969;101980.4;;;;-68
2023/06/21 18:03:10;;;;;;;;;;;;;;;28.53;43.96387;101975.8;;;;-67
2023/06/21 18:04:09;;;;;;;0.1;0;;;;;;;;;;;;;-67
2023/06/21 18:08:10;;;;;;;;;;;;;;;28.41;44.11523;101968.7;;;;-67
2023/06/21 18:13:10;;;;;;;;;;;;;;;28.31;44.03516;101975.8;;;;-67
2023/06/21 18:18:10;;;;;;;;;;;;;;;28.23;44.07422;101964.6;;;;-67
2023/06/21 18:23:12;;;;;;;;;;;;;;;28.15;44.03125;101962.9;;;;-68
2023/06/21 18:28:10;;;;;;;;;;;;;;;28.08;43.99023;101959.9;;;;-69
2023/06/21 18:33:10;;;;;;;;;;;;;;;28.03;43.69336;101952.2;;;;-70
2023/06/21 18:34:15;;;;;;;0.2;0;;;;;;;;;;;;;-72
2023/06/21 18:38:10;;;;;;;;;;;;;;;27.93;43.69531;101958.7;;;;-71
2023/06/21 18:43:10;;;;;;;;;;;;;;;27.84;43.53711;101950.3;;;;-72
2023/06/21 18:48:10;;;;;;;;;;;;;;;27.71;43.02344;101946.9;;;;-73
2023/06/21 18:53:10;;;;;;;;;;;;;;;27.57;43.10352;101938.8;;;;-71
2023/06/21 18:58:10;;;;;;;;;;;;;;;27.4;43.41211;101936.9;;;;-72
2023/06/21 19:03:10;;;;;;;;;;;;;;;27.21;43.93945;101936.6;;;;-72
2023/06/21 19:04:19;;;;;;;0.2;0;;;;;;;;;;;;;-71
2023/06/21 19:08:10;;;;;;;;;;;;;;;26.98;44.10352;101929.7;;;;-67
2023/06/21 19:13:10;;;;;;;;;;;;;;;26.77;43.85156;101932.5;;;;-67
2023/06/21 19:18:10;;;;;;;;;;;;;;;26.54;43.85254;101932.6;;;;-67
2023/06/21 19:23:10;;;;;;;;;;;;;;;26.31;45.03418;101930.4;;;;-68
2023/06/21 19:28:10;;;;;;;;;;;;;;;26.11;44.39941;101933.9;;;;-69
2023/06/21 19:33:11;;;;;;;;;;;;;;;25.88;44.62109;101934.6;;;;-68
2023/06/21 19:34:24;;;;;;;0.1;0;;;;;;;;;;;;;-68
2023/06/21 19:38:10;;;;;;;;;;;;;;;25.68;44.02246;101937.4;;;;-68
2023/06/21 19:43:10;;;;;;;;;;;;;;;25.44;44.70508;101942.5;;;;-69
2023/06/21 19:48:10;;;;;;;;;;;;;;;25.21;45.00586;101947;;;;-71
2023/06/21 19:53:10;;;;;;;;;;;;;;;24.99;45.15723;101948.3;;;;-67
2023/06/21 19:58:09;;;;;;;;;;;;;;;24.77;45.36621;101955.4;;;;-68
2023/06/21 20:03:09;;;;;;;;;;;;;;;24.56;45.45996;101954.3;;;;-67
2023/06/21 20:04:27;;;;;;;0.2;0;;;;;;;;;;;;;-68
2023/06/21 20:08:10;;;;;;;;;;;;;;;24.33;45.58691;101957.6;;;;-67
2023/06/21 20:13:10;;;;;;;;;;;;;;;24.14;45.59082;101959;;;;-67
2023/06/21 20:18:13;;;;;;;;;;;;;;;23.98;46.10547;101965.4;;;;-68
2023/06/21 20:23:10;;;;;;;;;;;;;;;23.78;46.60352;101975.5;;;;-67
2023/06/21 20:28:11;;;;;;;;;;;;;;;23.59;46.96289;101986.1;;;;-67
2023/06/21 20:33:10;;;;;;;;;;;;;;;23.41;47.19727;101990.8;;;;-67
2023/06/21 20:34:32;;;;;;;0.6;0.2;;;;;;;;;;;;;-68
2023/06/21 20:38:10;;;;;;;;;;;;;;;23.24;47.55859;101991.7;;;;-67
2023/06/21 20:43:18;;;;;;;;;;;;;;;23.06;47.86133;101984.2;;;;-68
2023/06/21 20:48:10;;;;;;;;;;;;;;;22.91;48.01758;101991.5;;;;-68
2023/06/21 20:53:10;;;;;;;;;;;;;;;22.77;48.2207;101991.8;;;;-70
2023/06/21 20:58:10;;;;;;;;;;;;;;;22.62;48.81348;101993;;;;-67
2023/06/21 21:03:10;;;;;;;;;;;;;;;22.45;49.10449;102001.7;;;;-69
2023/06/21 21:04:35;;;;;;;0.3;0.2;;;;;;;;;;;;;-67
2023/06/21 21:08:11;;;;;;;;;;;;;;;22.28;49.22266;102013.6;;;;-68
2023/06/21 21:13:10;;;;;;;;;;;;;;;22.18;49.46387;102013.2;;;;-67
2023/06/21 21:18:10;;;;;;;;;;;;;;;22.03;49.95215;102016.3;;;;-67
2023/06/21 21:23:10;;;;;;;;;;;;;;;21.93;49.62012;102019;;;;-67
2023/06/21 21:28:10;;;;;;;;;;;;;;;21.82;50.14648;102026.8;;;;-68
2023/06/21 21:33:10;;;;;;;;;;;;;;;21.69;50.56738;102034.4;;;;-67
2023/06/21 21:34:39;;;;;;;0.2;0;;;;;;;;;;;;;-68
2023/06/21 21:38:10;;;;;;;;;;;;;;;21.57;50.72461;102035.4;;;;-67
2023/06/21 21:43:10;;;;;;;;;;;;;;;21.47;50.61133;102030.3;;;;-67
2023/06/21 21:48:10;;;;;;;;;;;;;;;21.37;50.73633;102030.2;;;;-67
2023/06/21 21:53:10;;;;;;;;;;;;;;;21.27;51.38867;102033.7;;;;-68
2023/06/21 21:58:11;;;;;;;;;;;;;;;21.16;51.04492;102031.6;;;;-68
2023/06/21 22:03:10;;;;;;;;;;;;;;;21.12;50.86816;102028;;;;-68
2023/06/21 22:04:44;;;;;;;0.2;0;;;;;;;;;;;;;-68
2023/06/21 22:08:10;;;;;;;;;;;;;;;21;51.28906;102030.4;;;;-68
2023/06/21 22:13:11;;;;;;;;;;;;;;;20.91;51.69043;102035.2;;;;-67
2023/06/21 22:18:10;;;;;;;;;;;;;;;20.79;51.76758;102030.2;;;;-66
2023/06/21 22:23:11;;;;;;;;;;;;;;;20.71;52.13574;102025.7;;;;-68
2023/06/21 22:28:09;;;;;;;;;;;;;;;20.6;51.98535;102029.9;;;;-67
2023/06/21 22:33:10;;;;;;;;;;;;;;;20.51;52.04199;102023.1;;;;-68
2023/06/21 22:34:51;;;;;;;0.2;0;;;;;;;;;;;;;-68
2023/06/21 22:38:10;;;;;;;;;;;;;;;20.48;52.60938;102023.7;;;;-69
2023/06/21 22:43:10;;;;;;;;;;;;;;;20.36;52.49414;102027.8;;;;-67
2023/06/21 22:48:10;;;;;;;;;;;;;;;20.27;52.72266;102039.4;;;;-68
2023/06/21 22:53:10;;;;;;;;;;;;;;;20.19;52.89551;102037;;;;-67
2023/06/21 22:58:10;;;;;;;;;;;;;;;20.11;52.89648;102045.5;;;;-68
2023/06/21 23:03:12;;;;;;;;;;;;;;;20;53.21484;102045.4;;;;-67
2023/06/21 23:04:48;;;;;;;0.6;0.4;;;;;;;;;;;;;-68
2023/06/21 23:08:11;;;;;;;;;;;;;;;19.94;53.02637;102045.9;;;;-67
2023/06/21 23:13:10;;;;;;;;;;;;;;;19.88;53.21191;102055.5;;;;-67
2023/06/21 23:18:10;;;;;;;;;;;;;;;19.81;53.30469;102056.3;;;;-68
2023/06/21 23:23:14;;;;;;;;;;;;;;;19.74;53.28613;102056.5;;;;-67
2023/06/21 23:28:11;;;;;;;;;;;;;;;19.63;53.7168;102061;;;;-68
2023/06/21 23:33:10;;;;;;;;;;;;;;;19.53;53.4541;102056.1;;;;-68
2023/06/21 23:34:51;;;;;;;0.2;0;;;;;;;;;;;;;-68
2023/06/21 23:38:10;;;;;;;;;;;;;;;19.5;53.91797;102050.2;;;;-68
2023/06/21 23:43:12;;;;;;;;;;;;;;;19.4;53.79199;102047.3;;;;-66
2023/06/21 23:48:10;;;;;;;;;;;;;;;19.35;54.33301;102050.6;;;;-67
2023/06/21 23:53:10;;;;;;;;;;;;;;;19.23;54.11328;102037.4;;;;-68
2023/06/21 23:58:10;;;;;;;;;;;;;;;19.22;53.97461;102036.4;;;;-69
